createdAt,value
2024-03-13T00:03:07.204Z,6.60
2024-03-13T00:08:17.052Z,6.70
2024-03-13T00:13:21.706Z,6.70
2024-03-13T00:18:24.957Z,6.70
2024-03-13T00:23:29.317Z,6.60
2024-03-13T00:28:33.502Z,6.50
2024-03-13T00:33:40.088Z,6.40
2024-03-13T00:38:46.985Z,6.40
2024-03-13T00:43:50.605Z,6.30
2024-03-13T00:48:55.982Z,6.30
2024-03-13T00:54:00.191Z,6.20
2024-03-13T00:59:07.249Z,6.10
2024-03-13T01:04:12.418Z,6.10
2024-03-13T01:09:16.056Z,6.10
2024-03-13T01:14:21.484Z,6.00
2024-03-13T01:19:25.287Z,6.10
2024-03-13T01:24:28.378Z,6.10
2024-03-13T01:29:31.323Z,6.20
2024-03-13T01:34:34.648Z,6.20
2024-03-13T01:39:38.210Z,6.20
2024-03-13T01:45:25.810Z,6.20
2024-03-13T01:50:47.315Z,6.30
2024-03-13T01:55:53.606Z,6.30
2024-03-13T02:01:15.258Z,6.30
2024-03-13T02:07:12.458Z,6.30
2024-03-13T02:12:24.257Z,6.30
2024-03-13T02:17:28.726Z,6.30
2024-03-13T02:22:33.612Z,6.30
2024-03-13T02:27:37.955Z,6.30
2024-03-13T02:32:42.739Z,6.30
2024-03-13T02:37:46.291Z,6.30
2024-03-13T02:42:50.038Z,6.30
2024-03-13T02:47:54.296Z,6.30
2024-03-13T02:52:58.498Z,6.30
2024-03-13T02:58:03.156Z,6.30
2024-03-13T03:03:13.350Z,6.30
2024-03-13T03:08:17.602Z,6.20
2024-03-13T03:13:24.035Z,6.20
2024-03-13T03:18:28.421Z,6.20
2024-03-13T03:23:32.285Z,6.10
2024-03-13T03:28:37.182Z,6.20
2024-03-13T03:33:41.220Z,6.10
2024-03-13T03:38:46.392Z,6.10
2024-03-13T03:43:51.644Z,6.10
2024-03-13T03:48:56.587Z,6.10
2024-03-13T03:54:03.761Z,6.10
2024-03-13T03:59:09.533Z,6.10
2024-03-13T04:04:15.153Z,6.10
2024-03-13T04:09:20.275Z,5.90
2024-03-13T04:14:23.989Z,5.90
2024-03-13T04:19:28.025Z,6.00
2024-03-13T04:24:32.092Z,6.00
2024-03-13T04:29:42.087Z,6.00
2024-03-13T04:34:52.323Z,5.90
2024-03-13T04:39:56.349Z,5.90
2024-03-13T04:45:01.763Z,5.90
2024-03-13T04:50:05.910Z,5.90
2024-03-13T04:55:10.348Z,5.80
2024-03-13T05:00:15.051Z,5.80
2024-03-13T05:05:18.458Z,5.80
2024-03-13T05:10:23.078Z,5.80
2024-03-13T05:15:26.672Z,5.80
2024-03-13T05:20:29.929Z,5.80
2024-03-13T05:25:33.299Z,5.70
2024-03-13T05:30:39.511Z,5.80
2024-03-13T05:35:43.489Z,5.80
2024-03-13T05:40:46.901Z,5.80
2024-03-13T05:45:50.004Z,5.80
2024-03-13T05:50:53.642Z,5.90
2024-03-13T05:55:56.991Z,5.90
2024-03-13T06:01:03.539Z,6.00
2024-03-13T06:06:07.029Z,6.00
2024-03-13T06:11:10.589Z,6.10
2024-03-13T06:16:16.984Z,6.10
2024-03-13T06:21:22.389Z,6.20
2024-03-13T06:26:26.439Z,6.30
2024-03-13T06:31:29.916Z,6.40
2024-03-13T06:36:33.263Z,6.40
2024-03-13T06:41:37.368Z,6.50
2024-03-13T06:46:41.046Z,6.60
2024-03-13T06:51:44.704Z,6.70
2024-03-13T06:56:49.027Z,6.80
2024-03-13T07:01:53.583Z,6.80
2024-03-13T07:06:59.638Z,6.90
2024-03-13T07:12:03.598Z,7.00
2024-03-13T07:17:08.718Z,7.00
2024-03-13T07:22:12.549Z,7.10
2024-03-13T07:27:15.635Z,7.30
2024-03-13T07:32:19.061Z,7.30
2024-03-13T07:37:22.579Z,7.40
2024-03-13T07:42:27.419Z,7.50
2024-03-13T07:47:30.598Z,7.70
2024-03-13T07:52:33.738Z,7.80
2024-03-13T07:57:37.642Z,7.90
2024-03-13T08:02:41.227Z,8.10
2024-03-13T09:06:44.938Z,9.70
2024-03-13T09:11:50.039Z,9.90
2024-03-13T09:16:53.909Z,10.10
2024-03-13T09:21:57.350Z,10.30
2024-03-13T09:27:00.367Z,10.40
2024-03-13T09:32:04.141Z,10.50
2024-03-13T09:37:10.041Z,10.60
2024-03-13T09:42:18.533Z,10.80
2024-03-13T09:47:28.997Z,10.90
2024-03-13T09:52:34.514Z,11.10
2024-03-13T09:57:39.137Z,11.20
2024-03-13T10:02:53.101Z,11.30
2024-03-13T10:07:59.670Z,11.30
2024-03-13T10:13:03.764Z,11.30
2024-03-13T10:18:19.458Z,11.30
2024-03-13T10:23:24.465Z,11.30
2024-03-13T10:28:29.518Z,11.40
2024-03-13T10:33:34.139Z,11.50
2024-03-13T10:38:37.789Z,11.50
2024-03-13T10:43:43.601Z,11.50
2024-03-13T10:48:47.186Z,11.60
2024-03-13T10:53:52.015Z,11.70
2024-03-13T10:58:58.452Z,11.70
2024-03-13T11:04:03.839Z,11.60
2024-03-13T11:09:22.799Z,11.70
2024-03-13T11:14:29.528Z,11.70
2024-03-13T11:19:35.645Z,11.70
2024-03-13T11:24:41.145Z,11.60
2024-03-13T11:29:50.267Z,11.50
2024-03-13T11:34:54.184Z,11.60
2024-03-13T11:39:58.822Z,11.80
2024-03-13T11:45:28.877Z,11.80
2024-03-13T11:50:32.795Z,11.80
2024-03-13T11:55:37.072Z,11.90
2024-03-13T12:00:41.628Z,11.90
2024-03-13T12:05:47.895Z,12.00
2024-03-13T12:10:52.832Z,12.00
2024-03-13T12:15:56.390Z,12.00
2024-03-13T12:21:00.987Z,12.10
2024-03-13T12:26:06.200Z,12.10
2024-03-13T12:31:11.777Z,12.10
2024-03-13T12:36:15.383Z,12.20
2024-03-13T12:41:18.733Z,12.10
2024-03-13T12:46:22.909Z,12.10
2024-03-13T12:51:28.950Z,12.10
2024-03-13T12:56:32.513Z,12.10
2024-03-13T13:01:36.962Z,12.30
2024-03-13T13:06:40.301Z,12.30
2024-03-13T13:11:45.922Z,12.40
2024-03-13T13:16:49.893Z,12.50
2024-03-13T13:21:53.198Z,12.60
2024-03-13T13:26:56.276Z,12.60
2024-03-13T13:32:01.837Z,12.40
2024-03-13T13:37:05.685Z,12.30
2024-03-13T13:42:09.292Z,12.30
2024-03-13T13:47:12.661Z,12.30
2024-03-13T13:52:16.113Z,12.30
2024-03-13T13:57:21.877Z,12.20
2024-03-13T14:02:28.787Z,12.10
2024-03-13T14:07:35.503Z,12.00
2024-03-13T14:12:39.720Z,11.80
2024-03-13T14:17:43.967Z,11.80
2024-03-13T14:22:53.148Z,11.70
2024-03-13T14:27:56.921Z,11.70
2024-03-13T14:33:04.860Z,11.60
2024-03-13T14:38:08.165Z,11.50
2024-03-13T14:43:12.973Z,11.50
2024-03-13T14:48:16.485Z,11.30
2024-03-13T14:53:19.654Z,11.30
2024-03-13T14:58:23.379Z,11.20
2024-03-13T15:03:32.423Z,11.20
2024-03-13T15:08:37.339Z,11.10
2024-03-13T15:13:42.835Z,11.10
2024-03-13T15:18:46.918Z,11.00
2024-03-13T15:23:52.604Z,10.90
2024-03-13T15:28:56.938Z,10.80
2024-03-13T15:34:04.082Z,10.70
2024-03-13T15:39:08.631Z,10.70
2024-03-13T15:44:14.003Z,10.70
2024-03-13T15:49:17.973Z,10.70
2024-03-13T15:54:24.440Z,10.60
2024-03-13T15:59:27.808Z,10.60
2024-03-13T16:04:31.449Z,10.50
2024-03-13T16:09:34.676Z,10.40
2024-03-13T16:14:38.964Z,10.40
2024-03-13T16:19:43.261Z,10.30
2024-03-13T16:24:47.503Z,10.30
2024-03-13T16:29:51.291Z,10.10
2024-03-13T16:34:54.814Z,10.10
2024-03-13T16:39:58.584Z,10.00
2024-03-13T16:45:01.890Z,10.00
2024-03-13T16:50:05.680Z,9.90
2024-03-13T16:55:13.514Z,9.80
2024-03-13T17:00:18.431Z,9.70
2024-03-13T17:05:22.606Z,9.60
2024-03-13T17:10:26.445Z,9.50
2024-03-13T17:15:31.993Z,9.50
2024-03-13T17:20:35.862Z,9.40
2024-03-13T17:25:39.677Z,9.30
2024-03-13T17:30:44.025Z,9.20
2024-03-13T17:35:48.143Z,9.10
2024-03-13T17:40:51.997Z,9.10
2024-03-13T17:45:56.734Z,9.10
2024-03-13T17:51:00.772Z,9.00
2024-03-13T17:56:05.360Z,8.90
2024-03-13T18:01:10.552Z,8.90
2024-03-13T18:06:21.874Z,8.90
2024-03-13T18:11:29.900Z,8.80
2024-03-13T18:16:37.581Z,8.70
2024-03-13T18:21:41.950Z,8.60
2024-03-13T18:26:47.699Z,8.60
2024-03-13T18:31:53.343Z,8.50
2024-03-13T18:36:57.982Z,8.50
2024-03-13T18:42:02.760Z,8.40
2024-03-13T18:47:07.020Z,8.40
2024-03-13T18:52:11.419Z,8.30
2024-03-13T18:57:16.161Z,8.30
2024-03-13T19:02:24.376Z,8.30
2024-03-13T19:07:29.198Z,8.20
2024-03-13T19:12:33.667Z,8.20
2024-03-13T19:17:38.027Z,8.10
2024-03-13T19:22:42.699Z,8.10
2024-03-13T19:27:46.382Z,8.10
2024-03-13T19:32:50.510Z,8.10
2024-03-13T19:37:54.783Z,8.00
2024-03-13T19:43:01.969Z,8.00
2024-03-13T19:48:07.679Z,7.90
2024-03-13T19:53:12.060Z,7.90
2024-03-13T19:58:15.906Z,7.90
2024-03-13T20:03:20.209Z,7.80
2024-03-13T20:08:24.664Z,7.80
2024-03-13T20:13:29.262Z,7.80
2024-03-13T20:18:33.483Z,7.70
2024-03-13T20:23:37.582Z,7.60
2024-03-13T20:28:42.221Z,7.60
2024-03-13T20:33:46.443Z,7.50
2024-03-13T20:38:50.225Z,7.40
2024-03-13T20:43:54.148Z,7.30
2024-03-13T20:48:58.339Z,7.10
2024-03-13T20:54:04.152Z,7.00
2024-03-13T20:59:10.945Z,7.10
2024-03-13T21:04:14.689Z,7.10
2024-03-13T21:09:21.398Z,7.20
2024-03-13T21:14:25.619Z,7.20
2024-03-13T21:19:29.170Z,7.20
2024-03-13T21:24:32.829Z,7.10
2024-03-13T21:29:36.451Z,7.10
2024-03-13T21:34:40.696Z,7.10
2024-03-13T21:39:44.435Z,7.10
2024-03-13T21:44:48.208Z,7.10
2024-03-13T21:49:52.595Z,7.10
2024-03-13T21:54:56.211Z,7.10
2024-03-13T22:00:00.102Z,7.00
2024-03-13T22:05:05.734Z,7.00
2024-03-13T22:10:09.569Z,7.00
2024-03-13T22:15:16.654Z,7.00
2024-03-13T22:20:20.566Z,6.90
2024-03-13T22:25:24.142Z,6.90
2024-03-13T22:30:28.031Z,6.90
2024-03-13T22:35:32.032Z,6.90
2024-03-13T22:40:35.399Z,6.90
2024-03-13T22:45:38.995Z,6.80
2024-03-13T22:50:42.563Z,6.80
2024-03-13T22:55:46.136Z,6.80
2024-03-13T23:00:57.042Z,6.70
2024-03-13T23:06:00.697Z,6.70
2024-03-13T23:11:04.896Z,6.70
2024-03-13T23:16:08.932Z,6.60
2024-03-13T23:21:12.772Z,6.60
2024-03-13T23:26:16.516Z,6.50
2024-03-13T23:31:19.748Z,6.40
2024-03-13T23:36:22.985Z,6.30
2024-03-13T23:41:26.255Z,6.30
2024-03-13T23:46:29.643Z,6.20
2024-03-13T23:51:36.477Z,6.10
2024-03-13T23:56:42.811Z,6.10
